Time;durP1;ratioP1;P1;durP2;ratioP2;P2;SDS_P1;SDS_P2;PMS_P1;PMS_P2;Temp;Humidity;BMP_temperature;BMP_pressure;BME280_temperature;BME280_humidity;BME280_pressure;Samples;Min_cycle;Max_cycle;Signal;HPM_P1;HPM_P2
2022/12/28 00:00:45;;;;;;;;;;;7.70;99.90;;;;;;5048812;28;20279;-74
2022/12/28 00:03:10;;;;;;;;;;;7.70;99.90;;;;;;5028323;28;19921;-73
2022/12/28 00:05:36;;;;;;;;;;;7.70;99.90;;;;;;5045494;28;19936;-72
2022/12/28 00:08:01;;;;;;;;;;;7.70;99.90;;;;;;5039638;28;19944;-74
2022/12/28 00:10:27;;;;;;;;;;;7.70;99.90;;;;;;5038746;28;19916;-72
2022/12/28 00:12:52;;;;;;;;;;;7.70;99.90;;;;;;5036117;28;19967;-73
2022/12/28 00:15:18;;;;;;;;;;;7.60;99.90;;;;;;5036672;28;19917;-72
2022/12/28 00:17:43;;;;;;;;;;;7.70;99.90;;;;;;5034373;28;19908;-74
2022/12/28 00:20:09;;;;;;;;;;;7.70;99.90;;;;;;5041289;28;20411;-74
2022/12/28 00:22:35;;;;;;;;;;;7.70;99.90;;;;;;5033505;28;20331;-71
2022/12/28 00:25:00;;;;;;;;;;;7.70;99.90;;;;;;5032552;28;20336;-76
2022/12/28 00:27:26;;;;;;;;;;;7.70;99.90;;;;;;5038561;28;19960;-73
2022/12/28 00:29:51;;;;;;;;;;;7.80;99.90;;;;;;5044688;28;20345;-72
2022/12/28 00:32:17;;;;;;;;;;;7.80;99.90;;;;;;5044523;28;20430;-74
2022/12/28 00:34:42;;;;;;;;;;;7.80;99.90;;;;;;5033693;28;19948;-74
2022/12/28 00:37:07;;;;;;;;;;;7.80;99.90;;;;;;5040356;28;19909;-73
2022/12/28 00:39:33;;;;;;;;;;;7.80;99.90;;;;;;5041611;28;19913;-74
2022/12/28 00:41:58;;;;;;;;;;;7.80;99.90;;;;;;5034667;28;20620;-71
2022/12/28 00:44:24;;;;;;;;;;;7.80;99.90;;;;;;5044137;28;20007;-74
2022/12/28 00:46:49;;;;;;;;;;;7.80;99.90;;;;;;5029624;28;20012;-73
2022/12/28 00:49:15;;;;;;;;;;;7.90;99.90;;;;;;5035954;28;20698;-74
2022/12/28 00:51:40;;;;;;;;;;;7.90;99.90;;;;;;5040430;28;19924;-72
2022/12/28 00:54:06;;;;;;;;;;;7.90;99.90;;;;;;5036879;28;20592;-74
2022/12/28 00:56:31;;;;;;;;;;;7.90;99.90;;;;;;5033556;28;19913;-73
2022/12/28 00:58:57;;;;;;;;;;;7.90;99.90;;;;;;5033106;28;19925;-72
2022/12/28 01:01:23;;;;;;;;;;;8.00;99.90;;;;;;5032836;28;20555;-72
2022/12/28 01:03:48;;;;;;;;;;;8.00;99.90;;;;;;5039936;28;19925;-74
2022/12/28 01:06:18;;;;;;;;;;;8.00;99.90;;;;;;5041862;28;20465;-75
2022/12/28 01:08:43;;;;;;;;;;;8.00;99.90;;;;;;5040489;28;19913;-72
2022/12/28 01:11:10;;;;;;;;;;;8.00;99.90;;;;;;5042342;28;19913;-72
2022/12/28 01:13:36;;;;;;;;;;;8.00;99.90;;;;;;5041103;28;20537;-73
2022/12/28 01:16:15;;;;;;;;;;;8.00;99.90;;;;;;5033729;28;19910;-74
2022/12/28 01:18:41;;;;;;;;;;;8.10;99.90;;;;;;5034628;28;19952;-74
2022/12/28 01:21:10;;;;;;;;;;;8.00;99.90;;;;;;5034472;28;19971;-74
2022/12/28 01:23:35;;;;;;;;;;;8.00;99.90;;;;;;5035570;28;19988;-75
2022/12/28 01:26:01;;;;;;;;;;;8.00;99.90;;;;;;5030546;28;20000;-75
2022/12/28 01:28:27;;;;;;;;;;;8.00;99.90;;;;;;5034832;28;19939;-74
2022/12/28 01:30:53;;;;;;;;;;;8.00;99.90;;;;;;5034670;28;19960;-73
2022/12/28 01:33:18;;;;;;;;;;;8.10;99.90;;;;;;5040665;28;20492;-75
2022/12/28 01:35:43;;;;;;;;;;;8.10;99.90;;;;;;5036307;28;20290;-73
2022/12/28 01:38:09;;;;;;;;;;;8.10;99.90;;;;;;5036005;28;20346;-72
2022/12/28 01:40:34;;;;;;;;;;;8.20;99.90;;;;;;5038327;28;20449;-73
2022/12/28 01:43:00;;;;;;;;;;;8.10;99.90;;;;;;5027869;28;19923;-71
2022/12/28 01:45:25;;;;;;;;;;;8.10;99.90;;;;;;5033862;28;19956;-74
2022/12/28 01:47:52;;;;;;;;;;;8.10;99.90;;;;;;5035947;28;19920;-73
2022/12/28 01:50:23;;;;;;;;;;;8.10;99.90;;;;;;5035127;28;20290;-74
2022/12/28 01:52:55;;;;;;;;;;;8.10;99.90;;;;;;5037633;28;20103;-75
2022/12/28 01:55:23;;;;;;;;;;;8.10;99.90;;;;;;5034087;28;19913;-75
2022/12/28 01:57:55;;;;;;;;;;;8.10;99.90;;;;;;5032470;28;19917;-73
2022/12/28 02:00:21;;;;;;;;;;;8.20;99.90;;;;;;5032387;28;19917;-74
2022/12/28 02:02:53;;;;;;;;;;;8.10;99.90;;;;;;5035105;28;20004;-74
2022/12/28 02:05:19;;;;;;;;;;;8.20;99.90;;;;;;5043099;28;19921;-73
2022/12/28 02:07:44;;;;;;;;;;;8.20;99.90;;;;;;5042628;28;20000;-73
2022/12/28 02:10:10;;;;;;;;;;;8.20;99.90;;;;;;5044903;28;19959;-76
2022/12/28 02:12:35;;;;;;;;;;;8.30;99.90;;;;;;5040249;28;19962;-73
2022/12/28 02:15:02;;;;;;;;;;;8.30;99.90;;;;;;5032743;28;20393;-73
2022/12/28 02:17:27;;;;;;;;;;;8.30;99.90;;;;;;5042702;28;19924;-73
2022/12/28 02:19:53;;;;;;;;;;;8.30;99.90;;;;;;5039105;28;19913;-73
2022/12/28 02:22:37;;;;;;;;;;;8.30;99.90;;;;;;5040173;28;19924;-74
2022/12/28 02:25:05;;;;;;;;;;;8.30;99.90;;;;;;5036624;28;19966;-73
2022/12/28 02:27:39;;;;;;;;;;;8.30;99.90;;;;;;5039940;28;19920;-72
2022/12/28 02:30:06;;;;;;;;;;;8.40;99.90;;;;;;5044457;28;19921;-73
2022/12/28 02:32:36;;;;;;;;;;;8.40;99.90;;;;;;5041329;28;19909;-75
2022/12/28 02:35:05;;;;;;;;;;;8.40;99.90;;;;;;5047156;28;19921;-75
2022/12/28 02:37:33;;;;;;;;;;;8.40;99.90;;;;;;5040934;28;19913;-73
2022/12/28 02:40:01;;;;;;;;;;;8.50;99.90;;;;;;5041055;28;19917;-73
2022/12/28 02:42:27;;;;;;;;;;;8.50;99.90;;;;;;5046559;28;19939;-72
2022/12/28 02:50:29;;;;;;;;;;;8.60;99.90;;;;;;5042645;28;19983;-73
2022/12/28 02:53:19;;;;;;;;;;;8.70;99.90;;;;;;5040403;28;19913;-71
2022/12/28 02:56:08;;;;;;;;;;;8.80;99.90;;;;;;5040482;28;19960;-74
2022/12/28 02:58:52;;;;;;;;;;;8.80;99.90;;;;;;5032774;28;19917;-74
2022/12/28 03:01:36;;;;;;;;;;;8.80;99.90;;;;;;5041840;28;20551;-73
2022/12/28 03:04:20;;;;;;;;;;;8.90;99.90;;;;;;5038269;28;19937;-73
2022/12/28 03:09:48;;;;;;;;;;;8.90;99.90;;;;;;5043705;28;19923;-74
2022/12/28 03:12:37;;;;;;;;;;;9.00;99.90;;;;;;5043844;28;19924;-76
2022/12/28 03:15:32;;;;;;;;;;;9.00;99.90;;;;;;5029662;28;20441;-72
2022/12/28 03:31:51;;;;;;;;;;;9.10;99.90;;;;;;5048509;28;19935;-74
2022/12/28 03:34:16;;;;;;;;;;;9.10;99.90;;;;;;5043827;28;20363;-75
2022/12/28 03:36:46;;;;;;;;;;;9.20;99.90;;;;;;5048468;28;19913;-75
2022/12/28 03:39:30;;;;;;;;;;;9.20;99.90;;;;;;5046981;28;19913;-73
2022/12/28 03:44:48;;;;;;;;;;;9.20;99.90;;;;;;5044216;28;19935;-75
2022/12/28 03:47:13;;;;;;;;;;;9.20;99.90;;;;;;5033280;28;19909;-76
2022/12/28 03:49:39;;;;;;;;;;;9.20;99.90;;;;;;5032608;28;19927;-76
2022/12/28 03:52:06;;;;;;;;;;;9.20;99.90;;;;;;5039482;28;19913;-75
2022/12/28 03:54:32;;;;;;;;;;;9.20;99.90;;;;;;5033370;28;20330;-74
2022/12/28 03:56:57;;;;;;;;;;;9.20;99.90;;;;;;5039421;28;19909;-74
2022/12/28 03:59:23;;;;;;;;;;;9.20;99.90;;;;;;5040181;28;19909;-75
2022/12/28 04:01:48;;;;;;;;;;;9.30;99.90;;;;;;5042405;28;19968;-76
2022/12/28 04:04:14;;;;;;;;;;;9.30;99.90;;;;;;5037086;28;19923;-74
2022/12/28 04:06:39;;;;;;;;;;;9.30;99.90;;;;;;5041057;28;19913;-74
2022/12/28 04:09:05;;;;;;;;;;;9.30;99.90;;;;;;5043091;28;19923;-74
2022/12/28 04:11:30;;;;;;;;;;;9.30;99.90;;;;;;5036552;28;20063;-75
2022/12/28 04:13:56;;;;;;;;;;;9.30;99.90;;;;;;5034091;28;20342;-74
2022/12/28 04:16:21;;;;;;;;;;;9.30;99.90;;;;;;5033268;28;19940;-75
2022/12/28 04:18:47;;;;;;;;;;;9.30;99.90;;;;;;5038427;28;19913;-74
2022/12/28 04:21:13;;;;;;;;;;;9.30;99.90;;;;;;5036939;28;20321;-74
2022/12/28 04:23:38;;;;;;;;;;;9.30;99.90;;;;;;5041934;28;19917;-74
2022/12/28 04:26:05;;;;;;;;;;;9.30;99.90;;;;;;5036152;28;19921;-76
2022/12/28 04:28:31;;;;;;;;;;;9.30;99.90;;;;;;5043302;28;20371;-75
2022/12/28 04:30:57;;;;;;;;;;;9.30;99.90;;;;;;5045267;28;19917;-75
2022/12/28 04:33:23;;;;;;;;;;;9.40;99.90;;;;;;5036292;28;19924;-74
2022/12/28 04:35:49;;;;;;;;;;;9.40;99.90;;;;;;5039620;28;19920;-75
2022/12/28 04:38:14;;;;;;;;;;;9.40;99.90;;;;;;5044222;28;20071;-75
2022/12/28 04:40:40;;;;;;;;;;;9.40;99.90;;;;;;5037863;28;19921;-74
2022/12/28 04:43:05;;;;;;;;;;;9.40;99.90;;;;;;5034135;28;19913;-73
2022/12/28 04:45:31;;;;;;;;;;;9.40;99.90;;;;;;5042303;28;20408;-73
2022/12/28 04:47:57;;;;;;;;;;;9.40;99.90;;;;;;5041691;28;20035;-75
2022/12/28 04:50:23;;;;;;;;;;;9.50;99.90;;;;;;5031919;28;19928;-75
2022/12/28 04:52:48;;;;;;;;;;;9.50;99.90;;;;;;5033766;28;19921;-75
2022/12/28 04:55:14;;;;;;;;;;;9.40;99.90;;;;;;5037456;28;19913;-73
2022/12/28 04:57:42;;;;;;;;;;;9.40;99.90;;;;;;5035469;28;20422;-75
2022/12/28 05:00:08;;;;;;;;;;;9.50;99.90;;;;;;5031383;28;19910;-75
2022/12/28 05:02:33;;;;;;;;;;;9.50;99.90;;;;;;5040907;28;19983;-73
2022/12/28 05:04:58;;;;;;;;;;;9.50;99.90;;;;;;5043960;28;19917;-72
2022/12/28 05:07:26;;;;;;;;;;;9.50;99.90;;;;;;5039459;28;22764;-74
2022/12/28 05:09:52;;;;;;;;;;;9.60;99.90;;;;;;5039058;28;19995;-76
2022/12/28 05:12:18;;;;;;;;;;;9.50;99.90;;;;;;5041433;28;19917;-76
2022/12/28 05:14:44;;;;;;;;;;;9.60;99.90;;;;;;5034449;28;19956;-75
2022/12/28 05:17:09;;;;;;;;;;;9.60;99.90;;;;;;5037290;28;20003;-75
2022/12/28 05:19:35;;;;;;;;;;;9.60;99.90;;;;;;5036749;28;19920;-74
2022/12/28 05:22:00;;;;;;;;;;;9.60;99.90;;;;;;5039832;28;19916;-74
2022/12/28 05:24:26;;;;;;;;;;;9.60;99.90;;;;;;5044851;28;19916;-75
2022/12/28 05:26:51;;;;;;;;;;;9.60;99.90;;;;;;5040534;28;20439;-75
2022/12/28 05:29:17;;;;;;;;;;;9.70;99.90;;;;;;5043404;28;19917;-75
2022/12/28 05:31:42;;;;;;;;;;;9.60;99.90;;;;;;5045959;28;19913;-76
2022/12/28 05:34:08;;;;;;;;;;;9.70;99.90;;;;;;5040796;28;19909;-75
2022/12/28 05:36:36;;;;;;;;;;;9.70;99.90;;;;;;5040769;28;19936;-74
2022/12/28 05:39:02;;;;;;;;;;;9.60;99.90;;;;;;5043162;28;19913;-73
2022/12/28 05:41:29;;;;;;;;;;;9.70;99.90;;;;;;5032891;28;19919;-73
2022/12/28 05:43:55;;;;;;;;;;;9.60;99.90;;;;;;5041516;28;19909;-75
2022/12/28 05:46:23;;;;;;;;;;;9.70;99.90;;;;;;5042533;28;19913;-75
2022/12/28 05:48:49;;;;;;;;;;;9.70;99.90;;;;;;5043122;28;19967;-75
2022/12/28 05:51:17;;;;;;;;;;;9.70;99.90;;;;;;5044860;28;19944;-73
2022/12/28 05:53:43;;;;;;;;;;;9.70;99.90;;;;;;5041002;28;19917;-79
2022/12/28 05:56:12;;;;;;;;;;;9.70;99.90;;;;;;5044435;28;20016;-74
2022/12/28 05:58:38;;;;;;;;;;;9.70;99.90;;;;;;5040972;28;20529;-75
2022/12/28 06:01:14;;;;;;;;;;;9.80;99.90;;;;;;5058204;28;19961;-73
2022/12/28 06:03:40;;;;;;;;;;;9.80;99.90;;;;;;5056728;28;20691;-74
2022/12/28 06:06:09;;;;;;;;;;;9.80;99.90;;;;;;5057758;28;19972;-73
2022/12/28 06:08:36;;;;;;;;;;;9.80;99.90;;;;;;5053120;28;20260;-74
2022/12/28 06:11:02;;;;;;;;;;;9.80;99.90;;;;;;5055895;28;19920;-74
2022/12/28 06:13:28;;;;;;;;;;;9.80;99.90;;;;;;5057341;28;19948;-75
2022/12/28 06:15:54;;;;;;;;;;;9.80;99.90;;;;;;5055535;28;19944;-76
2022/12/28 06:18:19;;;;;;;;;;;9.80;99.90;;;;;;5056418;28;19917;-75
2022/12/28 06:20:45;;;;;;;;;;;9.80;99.90;;;;;;5053695;28;19914;-75
2022/12/28 06:23:10;;;;;;;;;;;9.80;99.90;;;;;;5045419;28;19920;-74
2022/12/28 06:25:36;;;;;;;;;;;9.90;99.90;;;;;;5056954;28;19913;-74
2022/12/28 06:28:02;;;;;;;;;;;9.90;99.90;;;;;;5054010;28;19925;-72
2022/12/28 06:30:27;;;;;;;;;;;9.90;99.90;;;;;;5047824;28;19914;-74
2022/12/28 06:32:54;;;;;;;;;;;9.90;99.90;;;;;;5045619;28;19916;-76
2022/12/28 06:35:20;;;;;;;;;;;9.80;99.90;;;;;;5039534;28;19916;-74
2022/12/28 06:37:46;;;;;;;;;;;9.90;99.90;;;;;;5029996;28;19909;-75
2022/12/28 06:40:11;;;;;;;;;;;9.90;99.90;;;;;;5037713;28;19975;-76
2022/12/28 06:42:37;;;;;;;;;;;9.90;99.90;;;;;;5043379;28;19924;-75
2022/12/28 06:45:02;;;;;;;;;;;9.90;99.90;;;;;;5041536;28;19916;-75
2022/12/28 06:47:28;;;;;;;;;;;9.90;99.90;;;;;;5040544;28;20342;-75
2022/12/28 06:49:53;;;;;;;;;;;9.90;99.90;;;;;;5041215;28;19988;-75
2022/12/28 06:52:19;;;;;;;;;;;9.90;99.90;;;;;;5040878;28;20007;-75
2022/12/28 06:54:44;;;;;;;;;;;10.00;99.90;;;;;;5040180;28;19940;-73
2022/12/28 06:57:10;;;;;;;;;;;10.00;99.90;;;;;;5041273;28;19919;-76
2022/12/28 06:59:35;;;;;;;;;;;10.00;99.90;;;;;;5042778;28;19909;-73
2022/12/28 07:02:00;;;;;;;;;;;10.00;99.90;;;;;;5041949;28;19917;-73
2022/12/28 07:04:26;;;;;;;;;;;10.00;99.90;;;;;;5040647;28;19921;-74
2022/12/28 07:06:51;;;;;;;;;;;10.00;99.90;;;;;;5046184;28;19909;-76
2022/12/28 07:09:17;;;;;;;;;;;10.10;99.90;;;;;;5035470;28;20433;-76
2022/12/28 07:11:43;;;;;;;;;;;10.00;99.90;;;;;;5046579;28;19944;-76
2022/12/28 07:14:08;;;;;;;;;;;10.10;99.90;;;;;;5037214;28;19958;-77
2022/12/28 07:16:34;;;;;;;;;;;10.00;99.90;;;;;;5045279;28;19908;-76
2022/12/28 07:18:59;;;;;;;;;;;10.00;99.90;;;;;;5046214;28;20717;-73
2022/12/28 07:21:27;;;;;;;;;;;10.10;99.90;;;;;;5045765;28;19908;-76
2022/12/28 07:23:53;;;;;;;;;;;10.00;99.90;;;;;;5043437;28;19920;-74
2022/12/28 07:26:24;;;;;;;;;;;10.10;99.90;;;;;;5044772;28;19971;-76
2022/12/28 07:28:51;;;;;;;;;;;10.10;99.90;;;;;;5043661;28;20027;-77
2022/12/28 07:31:18;;;;;;;;;;;10.10;99.90;;;;;;5043942;28;19920;-75
2022/12/28 07:33:44;;;;;;;;;;;10.10;99.90;;;;;;5042409;28;19962;-76
2022/12/28 07:36:11;;;;;;;;;;;10.10;99.90;;;;;;5044681;28;20003;-76
2022/12/28 07:38:37;;;;;;;;;;;10.10;99.90;;;;;;5043775;28;20571;-76
2022/12/28 07:41:22;;;;;;;;;;;10.10;99.90;;;;;;5044011;28;19947;-74
2022/12/28 07:43:48;;;;;;;;;;;10.10;99.90;;;;;;5044248;28;19916;-74
2022/12/28 07:46:15;;;;;;;;;;;10.10;99.90;;;;;;5039400;28;20407;-75
2022/12/28 07:48:41;;;;;;;;;;;10.10;99.90;;;;;;5043232;28;20231;-76
2022/12/28 07:51:06;;;;;;;;;;;10.10;99.90;;;;;;5053067;28;19909;-74
2022/12/28 07:53:32;;;;;;;;;;;10.10;99.90;;;;;;5045138;28;20116;-74
2022/12/28 07:55:58;;;;;;;;;;;10.10;99.90;;;;;;5039190;28;19921;-75
2022/12/28 07:58:23;;;;;;;;;;;10.10;99.90;;;;;;5036784;28;19913;-75
2022/12/28 08:00:49;;;;;;;;;;;10.10;99.90;;;;;;5040971;28;19917;-76
2022/12/28 08:03:15;;;;;;;;;;;10.10;99.90;;;;;;5039646;28;19999;-74
2022/12/28 08:05:40;;;;;;;;;;;10.20;99.90;;;;;;5038436;28;20000;-76
2022/12/28 08:08:06;;;;;;;;;;;10.10;99.90;;;;;;5031266;28;19909;-74
2022/12/28 08:10:32;;;;;;;;;;;10.10;99.90;;;;;;5038189;28;19990;-74
2022/12/28 08:12:58;;;;;;;;;;;10.10;99.90;;;;;;5037777;28;19912;-76
2022/12/28 08:15:23;;;;;;;;;;;10.20;99.90;;;;;;5041139;28;20056;-75
2022/12/28 08:17:48;;;;;;;;;;;10.10;99.90;;;;;;5035323;28;20510;-75
2022/12/28 08:20:14;;;;;;;;;;;10.10;99.90;;;;;;5034074;28;19909;-76
2022/12/28 08:22:39;;;;;;;;;;;10.10;99.90;;;;;;5041165;28;19917;-74
2022/12/28 08:25:05;;;;;;;;;;;10.10;99.90;;;;;;5045760;28;19912;-75
2022/12/28 08:27:31;;;;;;;;;;;10.20;99.90;;;;;;5045429;28;19919;-75
2022/12/28 08:29:57;;;;;;;;;;;10.20;99.90;;;;;;5038783;28;20011;-77
2022/12/28 08:32:23;;;;;;;;;;;10.20;99.90;;;;;;5039006;28;19919;-74
2022/12/28 08:34:48;;;;;;;;;;;10.20;99.90;;;;;;5033684;28;19924;-74
2022/12/28 08:37:14;;;;;;;;;;;10.30;99.90;;;;;;5035935;28;20563;-76
2022/12/28 08:39:39;;;;;;;;;;;10.30;99.90;;;;;;5038019;28;19909;-76
2022/12/28 08:42:04;;;;;;;;;;;10.20;99.90;;;;;;5031715;28;19913;-76
2022/12/28 08:44:30;;;;;;;;;;;10.30;99.90;;;;;;5036565;28;19913;-75
2022/12/28 08:46:56;;;;;;;;;;;10.30;99.90;;;;;;5037293;28;20294;-76
2022/12/28 08:49:22;;;;;;;;;;;10.20;99.90;;;;;;5032642;28;20516;-76
2022/12/28 08:51:47;;;;;;;;;;;10.30;99.90;;;;;;5034915;28;19959;-76
2022/12/28 08:54:13;;;;;;;;;;;10.30;99.90;;;;;;5030639;28;19911;-76
2022/12/28 08:56:39;;;;;;;;;;;10.30;99.90;;;;;;5033669;28;19909;-75
2022/12/28 08:59:05;;;;;;;;;;;10.20;99.90;;;;;;5029898;28;20492;-76
2022/12/28 09:01:34;;;;;;;;;;;10.30;99.90;;;;;;5038050;28;20405;-76
2022/12/28 09:04:00;;;;;;;;;;;10.20;99.90;;;;;;5030118;28;20000;-72
2022/12/28 09:06:27;;;;;;;;;;;10.20;99.90;;;;;;5030798;28;20425;-75
2022/12/28 09:08:53;;;;;;;;;;;10.30;99.90;;;;;;5032463;28;19983;-76
2022/12/28 09:11:19;;;;;;;;;;;10.30;99.90;;;;;;5034234;28;20879;-76
2022/12/28 09:13:44;;;;;;;;;;;10.30;99.90;;;;;;5040699;28;19913;-76
2022/12/28 09:16:11;;;;;;;;;;;10.30;99.90;;;;;;5037441;28;20477;-75
2022/12/28 09:18:37;;;;;;;;;;;10.30;99.90;;;;;;5035049;28;19908;-77
2022/12/28 09:21:04;;;;;;;;;;;10.30;99.90;;;;;;5036026;28;19912;-76
2022/12/28 09:23:29;;;;;;;;;;;10.30;99.90;;;;;;5040587;28;19917;-74
2022/12/28 09:25:55;;;;;;;;;;;10.30;99.90;;;;;;5039519;28;19916;-78
2022/12/28 09:28:20;;;;;;;;;;;10.30;99.90;;;;;;5042457;28;19962;-76
2022/12/28 09:30:46;;;;;;;;;;;10.30;99.90;;;;;;5038393;28;20006;-76
2022/12/28 09:35:56;;;;;;;;;;;10.30;99.90;;;;;;5055605;28;20603;-74
2022/12/28 09:38:22;;;;;;;;;;;10.30;99.90;;;;;;5049904;28;19920;-74
2022/12/28 09:40:47;;;;;;;;;;;10.30;99.90;;;;;;5053301;28;20549;-73
2022/12/28 09:43:13;;;;;;;;;;;10.30;99.90;;;;;;5045434;28;19923;-75
2022/12/28 09:45:38;;;;;;;;;;;10.30;99.90;;;;;;5042198;28;20375;-76
2022/12/28 09:48:10;;;;;;;;;;;10.30;99.90;;;;;;5038245;28;19984;-76
2022/12/28 09:50:36;;;;;;;;;;;10.30;99.90;;;;;;5037684;28;19909;-74
2022/12/28 09:53:05;;;;;;;;;;;10.30;99.90;;;;;;5037354;28;19916;-74
2022/12/28 09:55:32;;;;;;;;;;;10.40;99.90;;;;;;5036097;28;19920;-74
2022/12/28 09:57:58;;;;;;;;;;;10.40;99.90;;;;;;5040691;28;19913;-73
2022/12/28 10:00:27;;;;;;;;;;;10.40;99.90;;;;;;5036207;28;19909;-76
2022/12/28 10:02:55;;;;;;;;;;;10.40;99.90;;;;;;5036891;28;20023;-75
2022/12/28 10:05:21;;;;;;;;;;;10.40;99.90;;;;;;5049697;28;19924;-73
2022/12/28 10:07:46;;;;;;;;;;;10.40;99.90;;;;;;5033724;28;20529;-76
2022/12/28 10:10:14;;;;;;;;;;;10.40;99.90;;;;;;5039537;28;19909;-76
2022/12/28 10:12:42;;;;;;;;;;;10.30;99.90;;;;;;5049201;28;19909;-74
2022/12/28 10:15:10;;;;;;;;;;;10.30;99.90;;;;;;5048039;28;19915;-75
2022/12/28 10:17:37;;;;;;;;;;;10.40;99.90;;;;;;5040702;28;20340;-75
2022/12/28 10:20:02;;;;;;;;;;;10.30;99.90;;;;;;5045374;28;19915;-75
2022/12/28 10:22:35;;;;;;;;;;;10.30;99.90;;;;;;5038301;28;20003;-76
2022/12/28 10:25:00;;;;;;;;;;;10.30;99.90;;;;;;5036766;28;19908;-75
2022/12/28 10:27:29;;;;;;;;;;;10.30;99.90;;;;;;5037347;28;20000;-74
2022/12/28 10:29:55;;;;;;;;;;;10.30;99.90;;;;;;5041507;28;19915;-76
2022/12/28 10:32:20;;;;;;;;;;;10.40;99.90;;;;;;5044304;28;20449;-78
2022/12/28 10:34:56;;;;;;;;;;;10.40;99.90;;;;;;5036556;28;19996;-75
2022/12/28 10:37:22;;;;;;;;;;;10.50;99.90;;;;;;5042876;28;19983;-75
2022/12/28 10:39:55;;;;;;;;;;;10.50;99.90;;;;;;5062310;28;19980;-76
2022/12/28 10:42:23;;;;;;;;;;;10.60;99.90;;;;;;5057978;28;20656;-74
2022/12/28 10:44:49;;;;;;;;;;;10.60;99.90;;;;;;5045244;28;19924;-74
2022/12/28 10:47:16;;;;;;;;;;;10.70;99.90;;;;;;5045467;28;19909;-75
2022/12/28 10:49:47;;;;;;;;;;;10.70;99.90;;;;;;5051910;28;19980;-76
2022/12/28 10:52:15;;;;;;;;;;;10.70;99.90;;;;;;5041944;28;19908;-76
2022/12/28 10:54:40;;;;;;;;;;;10.80;99.90;;;;;;5056317;28;19909;-75
2022/12/28 10:57:32;;;;;;;;;;;10.80;99.90;;;;;;5050518;28;19909;-73
2022/12/28 11:00:13;;;;;;;;;;;10.80;99.90;;;;;;5044227;28;20291;-75
2022/12/28 11:02:38;;;;;;;;;;;10.80;99.90;;;;;;5049165;28;20458;-75
2022/12/28 11:05:04;;;;;;;;;;;10.90;99.90;;;;;;5038435;28;20004;-76
2022/12/28 11:07:37;;;;;;;;;;;10.90;99.90;;;;;;5045819;28;19909;-75
2022/12/28 11:10:21;;;;;;;;;;;10.90;99.90;;;;;;5041202;28;19908;-75
2022/12/28 11:12:47;;;;;;;;;;;10.90;99.90;;;;;;5032181;28;19996;-76
2022/12/28 11:15:16;;;;;;;;;;;10.90;99.90;;;;;;5051550;28;19952;-73
2022/12/28 11:17:42;;;;;;;;;;;10.90;99.90;;;;;;5043744;28;20017;-75
2022/12/28 11:20:15;;;;;;;;;;;10.90;99.90;;;;;;5053940;28;19920;-74
2022/12/28 11:22:40;;;;;;;;;;;10.90;99.90;;;;;;5065228;28;19916;-75
2022/12/28 11:25:06;;;;;;;;;;;10.90;99.90;;;;;;5055010;28;20386;-74
2022/12/28 11:27:32;;;;;;;;;;;10.90;99.90;;;;;;5046831;28;19908;-76
2022/12/28 11:29:58;;;;;;;;;;;10.90;99.90;;;;;;5049708;28;19912;-74
2022/12/28 11:32:30;;;;;;;;;;;10.90;99.90;;;;;;5048584;28;20041;-74
2022/12/28 11:34:56;;;;;;;;;;;11.00;99.90;;;;;;5045602;28;19913;-71
2022/12/28 11:37:22;;;;;;;;;;;11.00;99.90;;;;;;5046097;28;20379;-75
2022/12/28 11:39:48;;;;;;;;;;;10.90;99.90;;;;;;5048903;28;19909;-75
2022/12/28 11:42:32;;;;;;;;;;;11.00;99.90;;;;;;5043489;28;19920;-75
2022/12/28 11:44:58;;;;;;;;;;;11.00;99.90;;;;;;5035943;28;19917;-70
2022/12/28 11:47:35;;;;;;;;;;;11.00;99.90;;;;;;5039042;28;19974;-76
2022/12/28 11:50:19;;;;;;;;;;;11.00;99.90;;;;;;5044578;28;19909;-74
2022/12/28 11:52:45;;;;;;;;;;;11.10;99.90;;;;;;5037997;28;19963;-74
2022/12/28 11:55:20;;;;;;;;;;;11.10;99.90;;;;;;5046504;28;19959;-76
2022/12/28 11:57:45;;;;;;;;;;;11.20;99.90;;;;;;5044968;28;19912;-74
2022/12/28 12:00:37;;;;;;;;;;;11.20;99.90;;;;;;5042667;28;20329;-74
2022/12/28 12:03:02;;;;;;;;;;;11.30;99.90;;;;;;5035571;28;19917;-74
2022/12/28 12:05:34;;;;;;;;;;;11.30;99.90;;;;;;5037048;28;19913;-73
2022/12/28 12:07:59;;;;;;;;;;;11.40;99.90;;;;;;5046325;28;20002;-74
2022/12/28 12:10:28;;;;;;;;;;;11.40;99.90;;;;;;5045329;28;20567;-73
2022/12/28 12:12:53;;;;;;;;;;;11.40;99.90;;;;;;5039447;28;19913;-73
2022/12/28 12:15:39;;;;;;;;;;;11.40;99.90;;;;;;5040209;28;19919;-75
2022/12/28 12:18:06;;;;;;;;;;;11.50;99.90;;;;;;5040867;28;19913;-75
2022/12/28 12:20:55;;;;;;;;;;;11.50;99.90;;;;;;5044744;28;19939;-75
2022/12/28 12:23:40;;;;;;;;;;;11.50;99.90;;;;;;5026899;28;19946;-75
2022/12/28 12:26:29;;;;;;;;;;;11.50;99.90;;;;;;5042817;28;20031;-73
2022/12/28 12:28:57;;;;;;;;;;;11.50;99.90;;;;;;5033293;28;20374;-75
2022/12/28 12:31:27;;;;;;;;;;;11.50;99.90;;;;;;5038673;28;19913;-75
2022/12/28 12:33:55;;;;;;;;;;;11.40;99.90;;;;;;5032045;28;19909;-75
2022/12/28 12:36:35;;;;;;;;;;;11.40;99.90;;;;;;5045914;28;20585;-76
2022/12/28 12:39:03;;;;;;;;;;;11.40;99.90;;;;;;5045262;28;19909;-74
2022/12/28 12:41:31;;;;;;;;;;;11.40;99.90;;;;;;5034881;28;19908;-73
2022/12/28 12:44:10;;;;;;;;;;;11.30;99.90;;;;;;5035518;28;19913;-79
2022/12/28 12:46:39;;;;;;;;;;;11.30;99.90;;;;;;5040815;28;19954;-77
2022/12/28 12:49:25;;;;;;;;;;;11.30;99.90;;;;;;5042657;28;19916;-75
2022/12/28 12:51:51;;;;;;;;;;;11.30;99.90;;;;;;5034848;28;19909;-75
2022/12/28 12:54:21;;;;;;;;;;;11.30;99.90;;;;;;5041207;28;20015;-76
2022/12/28 12:56:55;;;;;;;;;;;11.20;99.90;;;;;;5048341;28;20378;-75
2022/12/28 12:59:23;;;;;;;;;;;11.10;99.90;;;;;;5043713;28;19955;-75
2022/12/28 13:02:09;;;;;;;;;;;11.10;99.90;;;;;;5048809;28;20139;-74
2022/12/28 13:04:34;;;;;;;;;;;11.10;99.90;;;;;;5015767;28;19917;-74
2022/12/28 13:07:02;;;;;;;;;;;11.00;99.90;;;;;;5030949;28;20449;-73
2022/12/28 13:09:29;;;;;;;;;;;10.90;99.90;;;;;;5043106;28;19909;-75
2022/12/28 13:11:54;;;;;;;;;;;10.90;99.90;;;;;;5040588;28;19909;-75
2022/12/28 13:14:21;;;;;;;;;;;10.90;99.90;;;;;;5041606;28;19908;-75
2022/12/28 13:16:52;;;;;;;;;;;10.80;99.90;;;;;;5042290;28;19921;-75
2022/12/28 13:19:22;;;;;;;;;;;10.80;99.90;;;;;;5044134;28;20049;-74
2022/12/28 13:21:49;;;;;;;;;;;10.80;99.90;;;;;;5044735;28;19917;-75
2022/12/28 13:24:24;;;;;;;;;;;10.70;99.90;;;;;;5042125;28;19915;-76
2022/12/28 13:26:50;;;;;;;;;;;10.70;99.90;;;;;;5045702;28;19912;-74
2022/12/28 13:29:37;;;;;;;;;;;10.70;99.90;;;;;;5040314;28;20395;-74
2022/12/28 13:32:02;;;;;;;;;;;10.70;99.90;;;;;;5044177;28;19922;-74
2022/12/28 13:34:29;;;;;;;;;;;10.70;99.90;;;;;;5044577;28;19913;-74
2022/12/28 13:36:57;;;;;;;;;;;10.70;99.90;;;;;;5045849;28;20456;-77
2022/12/28 13:39:23;;;;;;;;;;;10.70;99.90;;;;;;5046852;28;19916;-75
2022/12/28 13:41:50;;;;;;;;;;;10.70;99.90;;;;;;5045480;28;19917;-76
2022/12/28 13:44:48;;;;;;;;;;;10.70;99.90;;;;;;5041958;28;19909;-74
2022/12/28 13:47:18;;;;;;;;;;;10.70;99.90;;;;;;5002914;28;20353;-76
2022/12/28 13:49:55;;;;;;;;;;;10.70;99.90;;;;;;5042186;28;19939;-75
2022/12/28 13:52:27;;;;;;;;;;;10.70;99.90;;;;;;5041975;28;20138;-74
2022/12/28 13:54:55;;;;;;;;;;;10.70;99.90;;;;;;5042588;28;19909;-76
2022/12/28 13:57:21;;;;;;;;;;;10.70;99.90;;;;;;5034984;28;19913;-74
2022/12/28 13:59:48;;;;;;;;;;;10.70;99.90;;;;;;5046318;28;19912;-73
2022/12/28 14:02:15;;;;;;;;;;;10.70;99.90;;;;;;5040935;28;19913;-77
2022/12/28 14:04:41;;;;;;;;;;;10.70;99.90;;;;;;5055120;28;19917;-73
2022/12/28 14:07:11;;;;;;;;;;;10.70;99.90;;;;;;5048025;28;19909;-74
2022/12/28 14:09:37;;;;;;;;;;;10.70;99.90;;;;;;5051038;28;19916;-76
2022/12/28 14:12:02;;;;;;;;;;;10.70;99.90;;;;;;5052254;28;19913;-76
2022/12/28 14:14:28;;;;;;;;;;;10.70;99.90;;;;;;5054663;28;19920;-74
2022/12/28 14:16:53;;;;;;;;;;;10.70;99.90;;;;;;5055273;28;19909;-75
2022/12/28 14:19:19;;;;;;;;;;;10.70;99.90;;;;;;5054555;28;19912;-75
2022/12/28 14:21:45;;;;;;;;;;;10.60;99.90;;;;;;5057114;28;20603;-75
2022/12/28 14:24:12;;;;;;;;;;;10.70;99.90;;;;;;5054678;28;19980;-74
2022/12/28 14:26:39;;;;;;;;;;;10.60;99.90;;;;;;5055483;28;19909;-73
2022/12/28 14:29:15;;;;;;;;;;;10.60;99.90;;;;;;5056164;28;20008;-76
2022/12/28 14:31:40;;;;;;;;;;;10.60;99.90;;;;;;5053181;28;19954;-72
2022/12/28 14:34:15;;;;;;;;;;;10.60;99.90;;;;;;5048688;28;20380;-75
2022/12/28 14:36:42;;;;;;;;;;;10.60;99.90;;;;;;5051213;28;19920;-76
2022/12/28 14:39:23;;;;;;;;;;;10.60;99.90;;;;;;5048726;28;19909;-74
2022/12/28 14:41:49;;;;;;;;;;;10.60;99.90;;;;;;5044714;28;19928;-75
2022/12/28 14:44:16;;;;;;;;;;;10.60;99.90;;;;;;5047896;28;19917;-76
2022/12/28 14:46:42;;;;;;;;;;;10.60;99.90;;;;;;5045256;28;19908;-73
2022/12/28 14:49:28;;;;;;;;;;;10.60;99.90;;;;;;5043046;28;19928;-73
2022/12/28 14:51:54;;;;;;;;;;;10.60;99.90;;;;;;5045982;28;20682;-74
2022/12/28 14:54:19;;;;;;;;;;;10.60;99.90;;;;;;5040372;28;19916;-75
2022/12/28 14:56:48;;;;;;;;;;;10.60;99.90;;;;;;5044763;28;19909;-75